createdAt,value
2023-03-28T00:00:10.478Z,0.49
2023-03-28T00:01:10.430Z,0.49
2023-03-28T00:02:10.452Z,0.46
2023-03-28T00:03:10.446Z,0.46
2023-03-28T00:04:10.498Z,0.46
2023-03-28T00:05:10.372Z,0.46
2023-03-28T00:06:10.437Z,0.48
2023-03-28T00:07:10.359Z,0.48
2023-03-28T00:08:10.373Z,0.43
2023-03-28T00:09:10.343Z,0.48
2023-03-28T00:10:10.333Z,0.48
2023-03-28T00:11:10.324Z,0.48
2023-03-28T00:12:10.334Z,0.48
2023-03-28T00:13:10.272Z,0.48
2023-03-28T00:14:10.285Z,0.46
2023-03-28T00:15:10.265Z,0.48
2023-03-28T00:16:10.307Z,0.48
2023-03-28T00:17:10.248Z,0.46
2023-03-28T00:18:10.215Z,0.48
2023-03-28T00:19:10.224Z,0.48
2023-03-28T00:20:10.191Z,0.51
2023-03-28T00:21:10.172Z,0.58
2023-03-28T00:22:10.184Z,0.62
2023-03-28T00:23:10.142Z,0.65
2023-03-28T00:24:10.149Z,0.65
2023-03-28T00:25:10.142Z,0.67
2023-03-28T00:26:10.127Z,0.68
2023-03-28T00:27:10.118Z,0.70
2023-03-28T00:28:10.168Z,0.68
2023-03-28T00:29:10.107Z,0.70
2023-03-28T00:30:10.089Z,0.71
2023-03-28T00:31:10.078Z,0.71
2023-03-28T00:32:10.050Z,0.68
2023-03-28T00:33:10.051Z,0.70
2023-03-28T00:34:10.051Z,0.70
2023-03-28T00:35:10.049Z,0.68
2023-03-28T00:36:09.986Z,0.70
2023-03-28T00:37:09.977Z,0.67
2023-03-28T00:38:09.965Z,0.68
2023-03-28T00:39:09.972Z,0.68
2023-03-28T00:40:09.998Z,0.67
2023-03-28T00:41:09.935Z,0.67
2023-03-28T00:42:09.928Z,0.65
2023-03-28T00:43:09.904Z,0.67
2023-03-28T00:44:09.890Z,0.67
2023-03-28T00:45:09.903Z,0.68
2023-03-28T00:46:09.917Z,0.68
2023-03-28T00:47:09.909Z,0.68
2023-03-28T00:48:14.178Z,0.70
2023-03-28T00:49:10.866Z,0.71
2023-03-28T00:50:09.818Z,0.70
2023-03-28T00:51:09.831Z,0.67
2023-03-28T00:52:09.833Z,0.68
2023-03-28T00:53:09.812Z,0.68
2023-03-28T00:54:09.800Z,0.67
2023-03-28T00:55:09.756Z,0.64
2023-03-28T00:56:09.758Z,0.65
2023-03-28T00:57:09.805Z,0.65
2023-03-28T00:58:09.746Z,0.65
2023-03-28T00:59:09.714Z,0.65
2023-03-28T01:00:09.708Z,0.65
2023-03-28T01:01:09.719Z,0.65
2023-03-28T01:02:09.776Z,0.65
2023-03-28T01:03:09.698Z,0.67
2023-03-28T01:04:09.648Z,0.67
2023-03-28T01:05:09.667Z,0.65
2023-03-28T01:06:09.633Z,0.65
2023-03-28T01:07:09.632Z,0.68
2023-03-28T01:08:09.647Z,0.68
2023-03-28T01:09:09.578Z,0.70
2023-03-28T01:10:09.582Z,0.67
2023-03-28T01:11:09.564Z,0.67
2023-03-28T01:12:09.562Z,0.67
2023-03-28T01:13:09.537Z,0.67
2023-03-28T01:14:09.531Z,0.67
2023-03-28T01:15:09.509Z,0.67
2023-03-28T01:16:09.605Z,0.68
2023-03-28T01:17:09.472Z,0.68
2023-03-28T01:18:09.522Z,0.68
2023-03-28T01:19:09.453Z,0.65
2023-03-28T01:20:09.441Z,0.64
2023-03-28T01:21:09.434Z,0.67
2023-03-28T01:22:09.453Z,0.68
2023-03-28T01:23:09.423Z,0.70
2023-03-28T01:24:11.458Z,0.72
2023-03-28T01:25:09.407Z,0.75
2023-03-28T01:26:09.360Z,0.79
2023-03-28T01:27:09.362Z,0.80
2023-03-28T01:28:09.350Z,0.83
2023-03-28T01:29:09.333Z,0.82
2023-03-28T01:30:09.358Z,0.80
2023-03-28T01:31:09.320Z,0.80
2023-03-28T01:32:09.301Z,0.78
2023-03-28T01:33:09.317Z,0.79
2023-03-28T01:34:09.274Z,0.79
2023-03-28T01:35:09.271Z,0.80
2023-03-28T01:36:09.241Z,0.83
2023-03-28T01:37:09.293Z,0.88
2023-03-28T01:38:09.221Z,0.90
2023-03-28T01:39:09.199Z,0.90
2023-03-28T01:40:09.179Z,0.90
2023-03-28T01:41:09.189Z,0.92
2023-03-28T01:42:09.180Z,0.92
2023-03-28T01:43:09.177Z,0.92
2023-03-28T01:44:09.156Z,0.92
2023-03-28T01:45:09.113Z,0.92
2023-03-28T01:46:09.134Z,0.92
2023-03-28T01:47:09.096Z,0.92
2023-03-28T01:48:09.117Z,0.96
2023-03-28T01:49:09.077Z,0.96
2023-03-28T01:50:09.085Z,0.96
2023-03-28T01:51:09.055Z,0.96
2023-03-28T01:52:09.049Z,0.94
2023-03-28T01:53:09.039Z,0.94
2023-03-28T01:54:09.008Z,0.96
2023-03-28T01:55:09.000Z,0.96
2023-03-28T01:56:08.997Z,0.94
2023-03-28T01:58:01.192Z,0.97
2023-03-28T01:59:01.151Z,1.00
2023-03-28T02:00:01.205Z,1.03
2023-03-28T02:01:01.160Z,1.01
2023-03-28T02:02:01.124Z,1.01
2023-03-28T02:03:01.185Z,1.01
2023-03-28T02:04:01.119Z,1.00
2023-03-28T02:05:01.117Z,1.00
2023-03-28T02:06:01.388Z,1.01
2023-03-28T02:07:01.073Z,1.01
2023-03-28T02:08:01.067Z,1.01
2023-03-28T02:09:01.052Z,1.00
2023-03-28T02:10:01.010Z,1.01
2023-03-28T02:11:01.021Z,1.03
2023-03-28T02:12:00.985Z,1.03
2023-03-28T02:13:00.985Z,1.03
2023-03-28T02:14:00.993Z,1.04
2023-03-28T02:15:00.977Z,1.07
2023-03-28T02:16:01.147Z,1.06
2023-03-28T02:17:00.947Z,1.04
2023-03-28T02:18:00.994Z,1.04
2023-03-28T02:19:00.904Z,1.01
2023-03-28T02:20:01.012Z,1.01
2023-03-28T02:21:00.888Z,1.00
2023-03-28T02:22:00.898Z,1.01
2023-03-28T02:23:00.882Z,1.01
2023-03-28T02:24:00.865Z,1.01
2023-03-28T02:25:00.840Z,0.97
2023-03-28T02:26:01.054Z,0.96
2023-03-28T02:27:00.846Z,0.96
2023-03-28T02:28:00.807Z,0.96
2023-03-28T02:29:00.807Z,0.96
2023-03-28T02:30:00.795Z,0.94
2023-03-28T02:31:00.828Z,0.94
2023-03-28T02:32:00.892Z,0.90
2023-03-28T02:33:00.809Z,0.89
2023-03-28T02:34:00.742Z,0.89
2023-03-28T02:35:00.746Z,0.89
2023-03-28T02:36:01.030Z,0.86
2023-03-28T02:37:00.714Z,0.83
2023-03-28T02:38:00.721Z,0.82
2023-03-28T02:39:00.699Z,0.80
2023-03-28T02:40:00.691Z,0.78
2023-03-28T02:41:00.666Z,0.79
2023-03-28T02:42:00.660Z,0.76
2023-03-28T02:43:00.675Z,0.75
2023-03-28T02:44:00.656Z,0.72
2023-03-28T02:45:00.606Z,0.72
2023-03-28T02:46:00.843Z,0.71
2023-03-28T02:47:01.438Z,0.75
2023-03-28T02:48:00.657Z,0.76
2023-03-28T02:49:00.550Z,0.78
2023-03-28T02:50:00.557Z,0.72
2023-03-28T02:51:00.541Z,0.70
2023-03-28T02:52:00.553Z,0.67
2023-03-28T02:53:00.546Z,0.68
2023-03-28T02:54:00.517Z,0.67
2023-03-28T02:55:00.465Z,0.64
2023-03-28T02:56:00.666Z,0.62
2023-03-28T02:57:00.508Z,0.62
2023-03-28T02:58:00.481Z,0.60
2023-03-28T02:59:00.485Z,0.58
2023-03-28T03:00:00.422Z,0.53
2023-03-28T03:01:00.416Z,0.53
2023-03-28T03:02:00.445Z,0.57
2023-03-28T03:03:00.461Z,0.58
2023-03-28T03:04:00.405Z,0.57
2023-03-28T03:05:00.339Z,0.57
2023-03-28T03:06:00.540Z,0.60
2023-03-28T03:07:00.343Z,0.58
2023-03-28T03:08:00.307Z,0.60
2023-03-28T03:09:00.320Z,0.61
2023-03-28T03:10:00.303Z,0.61
2023-03-28T03:11:00.339Z,0.62
2023-03-28T03:12:00.287Z,0.62
2023-03-28T03:13:00.274Z,0.64
2023-03-28T03:14:00.290Z,0.65
2023-03-28T03:15:00.237Z,0.64
2023-03-28T03:16:00.445Z,0.64
2023-03-28T03:17:00.197Z,0.62
2023-03-28T03:18:00.247Z,0.64
2023-03-28T03:19:00.207Z,0.65
2023-03-28T03:20:00.171Z,0.65
2023-03-28T03:21:00.198Z,0.67
2023-03-28T03:22:00.154Z,0.67
2023-03-28T03:23:00.138Z,0.72
2023-03-28T03:24:00.178Z,0.70
2023-03-28T03:25:00.149Z,0.71
2023-03-28T03:26:00.240Z,0.75
2023-03-28T03:27:00.121Z,0.76
2023-03-28T03:28:00.180Z,0.78
2023-03-28T03:29:00.039Z,0.78
2023-03-28T03:30:00.049Z,0.80
2023-03-28T03:31:00.093Z,0.79
2023-03-28T03:32:00.048Z,0.82
2023-03-28T03:33:00.038Z,0.82
2023-03-28T03:33:59.984Z,0.85
2023-03-28T03:34:59.981Z,0.86
2023-03-28T03:36:00.249Z,0.85
2023-03-28T03:36:59.958Z,0.85
2023-03-28T03:37:59.939Z,0.83
2023-03-28T03:38:59.925Z,0.83
2023-03-28T03:39:59.903Z,0.85
2023-03-28T03:40:59.921Z,0.86
2023-03-28T03:41:59.894Z,0.86
2023-03-28T03:42:59.862Z,0.85
2023-03-28T03:43:59.854Z,0.83
2023-03-28T03:44:59.865Z,0.80
2023-03-28T03:46:00.005Z,0.82
2023-03-28T03:46:59.836Z,0.80
2023-03-28T03:47:59.891Z,0.79
2023-03-28T03:48:59.828Z,0.79
2023-03-28T03:49:59.825Z,0.78
2023-03-28T03:50:59.778Z,0.78
2023-03-28T03:51:59.775Z,0.78
2023-03-28T03:52:59.767Z,0.79
2023-03-28T03:53:59.742Z,0.80
2023-03-28T03:54:59.732Z,0.79
2023-03-28T03:55:59.859Z,0.78
2023-03-28T03:56:59.771Z,0.79
2023-03-28T03:57:59.680Z,0.78
2023-03-28T03:58:59.676Z,0.80
2023-03-28T03:59:59.703Z,0.80
2023-03-28T04:00:59.669Z,0.80
2023-03-28T04:01:59.692Z,0.78
2023-03-28T04:02:59.669Z,0.75
2023-03-28T04:03:59.681Z,0.71
2023-03-28T04:04:59.579Z,0.76
2023-03-28T04:05:59.700Z,0.80
2023-03-28T04:06:59.600Z,0.85
2023-03-28T04:07:59.576Z,0.89
2023-03-28T04:08:59.541Z,0.89
2023-03-28T04:09:59.520Z,0.90
2023-03-28T04:10:59.548Z,0.89
2023-03-28T04:11:59.490Z,0.88
2023-03-28T04:12:59.498Z,0.83
2023-03-28T04:13:59.528Z,0.85
2023-03-28T04:14:59.525Z,0.85
2023-03-28T04:15:59.782Z,0.85
2023-03-28T04:16:59.428Z,0.83
2023-03-28T04:18:00.328Z,0.82
2023-03-28T04:18:59.422Z,0.80
2023-03-28T04:19:59.409Z,0.79
2023-03-28T04:20:59.395Z,0.80
2023-03-28T04:21:59.379Z,0.80
2023-03-28T04:22:59.354Z,0.79
2023-03-28T04:23:59.346Z,0.82
2023-03-28T04:24:59.376Z,0.82
2023-03-28T04:25:59.556Z,0.82
2023-03-28T04:26:59.360Z,0.80
2023-03-28T04:27:59.325Z,0.79
2023-03-28T04:28:59.306Z,0.79
2023-03-28T04:29:59.276Z,0.78
2023-03-28T04:30:59.384Z,0.76
2023-03-28T04:31:59.249Z,0.78
2023-03-28T04:32:59.273Z,0.76
2023-03-28T04:33:59.286Z,0.76
2023-03-28T04:34:59.264Z,0.75
2023-03-28T04:35:59.400Z,0.76
2023-03-28T04:36:59.162Z,0.75
2023-03-28T04:37:59.167Z,0.75
2023-03-28T04:38:59.163Z,0.72
2023-03-28T04:39:59.116Z,0.72
2023-03-28T04:40:59.175Z,0.72
2023-03-28T04:41:59.136Z,0.71
2023-03-28T04:42:59.103Z,0.71
2023-03-28T04:43:59.092Z,0.70
2023-03-28T04:44:59.082Z,0.67
2023-03-28T04:45:59.312Z,0.67
2023-03-28T04:46:59.098Z,0.68
2023-03-28T04:47:59.058Z,0.71
2023-03-28T04:48:59.065Z,0.76
2023-03-28T04:49:59.015Z,0.78
2023-03-28T04:50:59.010Z,0.80
2023-03-28T04:51:59.036Z,0.82
2023-03-28T04:52:58.996Z,0.85
2023-03-28T04:53:58.968Z,0.86
2023-03-28T04:54:58.991Z,0.88
2023-03-28T04:55:59.089Z,0.89
2023-03-28T04:56:58.994Z,0.89
2023-03-28T04:57:58.946Z,0.92
2023-03-28T04:58:58.924Z,0.94
2023-03-28T04:59:58.915Z,0.94
2023-03-28T05:00:59.240Z,0.96
2023-03-28T05:01:59.086Z,0.97
2023-03-28T05:02:58.936Z,0.97
2023-03-28T05:03:58.839Z,0.98
2023-03-28T05:04:58.858Z,1.00
2023-03-28T05:05:58.814Z,1.01
2023-03-28T05:06:58.824Z,1.03
2023-03-28T05:07:58.840Z,1.03
2023-03-28T05:08:58.788Z,1.03
2023-03-28T05:09:58.737Z,1.03
2023-03-28T05:10:59.002Z,1.03
2023-03-28T05:11:58.705Z,1.00
2023-03-28T05:12:58.731Z,1.00
2023-03-28T05:13:58.741Z,0.98
2023-03-28T05:14:58.675Z,0.97
2023-03-28T05:15:58.700Z,0.98
2023-03-28T05:16:58.674Z,0.97
2023-03-28T05:17:58.717Z,0.97
2023-03-28T05:18:59.108Z,0.96
2023-03-28T05:19:58.674Z,0.96
2023-03-28T05:20:58.808Z,0.96
2023-03-28T05:21:58.627Z,0.94
2023-03-28T05:22:58.633Z,0.96
2023-03-28T05:23:58.594Z,0.96
2023-03-28T05:24:58.552Z,0.94
2023-03-28T05:25:58.556Z,0.98
2023-03-28T05:26:58.568Z,0.98
2023-03-28T05:27:58.510Z,1.01
2023-03-28T05:28:58.534Z,1.03
2023-03-28T05:29:58.508Z,1.06
2023-03-28T05:30:58.739Z,1.06
2023-03-28T05:31:58.542Z,1.08
2023-03-28T05:32:58.610Z,1.10
2023-03-28T05:33:58.465Z,1.12
2023-03-28T05:34:58.458Z,1.15
2023-03-28T05:35:58.499Z,1.15
2023-03-28T05:36:58.422Z,1.18
2023-03-28T05:37:58.390Z,1.22
2023-03-28T05:38:58.394Z,1.19
2023-03-28T05:39:58.435Z,1.22
2023-03-28T05:40:58.857Z,1.25
2023-03-28T05:41:58.334Z,1.24
2023-03-28T05:42:58.336Z,1.22
2023-03-28T05:43:58.312Z,1.25
2023-03-28T05:44:58.331Z,1.24
2023-03-28T05:45:58.312Z,1.24
2023-03-28T05:46:58.309Z,1.26
2023-03-28T05:47:58.294Z,1.25
2023-03-28T05:48:58.259Z,1.24
2023-03-28T05:49:58.249Z,1.22
2023-03-28T05:50:58.406Z,1.18
2023-03-28T05:51:58.248Z,1.22
2023-03-28T05:52:58.200Z,1.19
2023-03-28T05:53:58.196Z,1.22
2023-03-28T05:54:58.183Z,1.22
2023-03-28T05:55:58.210Z,1.21
2023-03-28T05:56:58.298Z,1.22
2023-03-28T05:57:58.159Z,1.22
2023-03-28T05:58:58.153Z,1.24
2023-03-28T05:59:58.128Z,1.25
2023-03-28T06:00:58.282Z,1.22
2023-03-28T06:01:58.081Z,1.24
2023-03-28T06:02:58.159Z,1.24
2023-03-28T06:03:58.069Z,1.26
2023-03-28T06:04:58.160Z,1.28
2023-03-28T06:05:58.068Z,1.29
2023-03-28T06:06:58.016Z,1.28
2023-03-28T06:07:58.028Z,1.28
2023-03-28T06:08:58.008Z,1.26
2023-03-28T06:09:57.979Z,1.26
2023-03-28T06:10:58.292Z,1.28
2023-03-28T06:11:57.986Z,1.29
2023-03-28T06:12:57.936Z,1.26
2023-03-28T06:13:57.948Z,1.28
2023-03-28T06:14:57.911Z,1.26
2023-03-28T06:15:57.985Z,1.28
2023-03-28T06:16:57.906Z,1.28
2023-03-28T06:17:57.999Z,1.29
2023-03-28T06:19:10.420Z,1.32
2023-03-28T06:19:58.942Z,1.33
2023-03-28T06:20:58.139Z,1.28
2023-03-28T06:21:57.867Z,1.29
2023-03-28T06:22:57.863Z,1.28
2023-03-28T06:23:57.816Z,1.33
2023-03-28T06:24:57.806Z,1.33
2023-03-28T06:25:57.825Z,1.34
2023-03-28T06:26:57.799Z,1.32
2023-03-28T06:27:57.783Z,1.33
2023-03-28T06:28:57.763Z,1.36
2023-03-28T06:29:57.750Z,1.37
2023-03-28T06:30:57.844Z,1.34
2023-03-28T06:31:57.818Z,1.34
2023-03-28T06:32:57.755Z,1.37
2023-03-28T06:33:57.694Z,1.42
2023-03-28T06:34:57.668Z,1.40
2023-03-28T06:35:57.785Z,1.43
2023-03-28T06:36:57.656Z,1.46
2023-03-28T06:37:57.653Z,1.46
2023-03-28T06:38:57.686Z,1.47
2023-03-28T06:39:57.604Z,1.46
2023-03-28T06:40:57.654Z,1.47
2023-03-28T06:41:57.596Z,1.52
2023-03-28T06:42:57.555Z,1.55
2023-03-28T06:43:57.571Z,1.55
2023-03-28T06:44:57.592Z,1.57
2023-03-28T06:45:57.579Z,1.60
2023-03-28T06:46:57.536Z,1.61
2023-03-28T06:47:57.522Z,1.68
2023-03-28T06:48:57.510Z,1.68
2023-03-28T06:49:57.497Z,1.68
2023-03-28T06:50:57.598Z,1.75
2023-03-28T06:51:57.480Z,1.79
2023-03-28T06:52:57.453Z,1.83
2023-03-28T06:53:57.442Z,1.85
2023-03-28T06:54:57.433Z,1.83
2023-03-28T06:55:57.440Z,1.83
2023-03-28T06:56:57.474Z,1.89
2023-03-28T06:57:57.396Z,1.93
2023-03-28T06:58:57.373Z,1.97
2023-03-28T06:59:57.404Z,2.02
2023-03-28T07:00:57.415Z,2.08
2023-03-28T07:01:57.402Z,2.13
2023-03-28T07:02:57.356Z,2.13
2023-03-28T07:03:57.646Z,2.15
2023-03-28T07:04:57.277Z,2.12
2023-03-28T07:05:57.302Z,2.10
2023-03-28T07:06:57.295Z,2.12
2023-03-28T07:07:57.264Z,2.12
2023-03-28T07:08:57.266Z,2.16
2023-03-28T07:09:57.244Z,2.22
2023-03-28T07:10:57.351Z,2.19
2023-03-28T07:11:57.234Z,2.23
2023-03-28T07:12:57.173Z,2.30
2023-03-28T07:13:57.171Z,2.31
2023-03-28T07:14:57.186Z,2.33
2023-03-28T07:15:57.161Z,2.35
2023-03-28T07:16:57.195Z,2.33
2023-03-28T07:17:57.230Z,2.31
2023-03-28T07:18:57.132Z,2.31
2023-03-28T07:19:57.101Z,2.31
2023-03-28T07:21:04.102Z,2.31
2023-03-28T07:21:58.113Z,2.38
2023-03-28T07:22:57.074Z,2.41
2023-03-28T07:23:57.063Z,2.45
2023-03-28T07:24:57.046Z,2.49
2023-03-28T07:25:57.024Z,2.52
2023-03-28T07:27:11.731Z,2.59
2023-03-28T07:27:58.084Z,2.58
2023-03-28T07:28:57.009Z,2.55
2023-03-28T07:29:56.979Z,2.59
2023-03-28T07:30:57.244Z,2.61
2023-03-28T07:31:56.997Z,2.66
2023-03-28T07:33:09.430Z,2.73
2023-03-28T07:33:57.985Z,2.74
2023-03-28T07:34:56.908Z,2.79
2023-03-28T07:35:56.958Z,2.74
2023-03-28T07:36:56.900Z,2.71
2023-03-28T07:37:57.072Z,2.76
2023-03-28T07:38:56.926Z,2.81
2023-03-28T07:39:56.831Z,2.87
2023-03-28T07:40:56.836Z,2.89
2023-03-28T07:41:56.823Z,2.87
2023-03-28T07:42:56.817Z,2.84
2023-03-28T07:43:56.809Z,2.79
2023-03-28T07:44:56.851Z,2.79
2023-03-28T07:45:56.786Z,2.79
2023-03-28T07:46:56.830Z,2.81
2023-03-28T07:47:56.781Z,2.89
2023-03-28T07:48:56.729Z,2.97
2023-03-28T07:49:56.745Z,2.92
2023-03-28T07:50:56.745Z,2.91
2023-03-28T07:51:56.704Z,2.94
2023-03-28T07:52:56.665Z,2.97
2023-03-28T07:53:56.712Z,3.03
2023-03-28T07:54:56.645Z,3.10
2023-03-28T07:55:56.636Z,3.06
2023-03-28T07:56:56.630Z,3.10
2023-03-28T07:58:03.804Z,3.10
2023-03-28T07:58:56.618Z,3.06
2023-03-28T07:59:56.590Z,3.05
2023-03-28T08:00:56.561Z,3.07
2023-03-28T08:01:56.561Z,3.07
2023-03-28T08:02:56.643Z,3.18
2023-03-28T08:03:56.730Z,3.20
2023-03-28T08:04:56.540Z,3.24
2023-03-28T08:05:56.618Z,3.27
2023-03-28T08:06:56.528Z,3.30
2023-03-28T08:07:56.523Z,3.40
2023-03-28T08:08:56.530Z,3.47
2023-03-28T08:09:58.876Z,3.49
2023-03-28T08:10:56.457Z,3.46
2023-03-28T08:11:56.433Z,3.46
2023-03-28T08:12:56.412Z,3.53
2023-03-28T08:13:56.422Z,3.61
2023-03-28T08:14:56.401Z,3.67
2023-03-28T08:15:56.476Z,3.71
2023-03-28T08:16:56.417Z,3.71
2023-03-28T08:17:56.403Z,3.78
2023-03-28T08:19:03.911Z,3.72
2023-03-28T08:19:57.346Z,3.78
2023-03-28T08:20:56.326Z,3.78
2023-03-28T08:21:56.328Z,3.76
2023-03-28T08:22:56.394Z,3.82
2023-03-28T08:23:56.293Z,3.85
2023-03-28T08:24:56.283Z,3.86
2023-03-28T08:25:56.278Z,3.90
2023-03-28T08:26:56.234Z,3.94
2023-03-28T08:27:56.261Z,3.94
2023-03-28T08:28:56.260Z,3.72
2023-03-28T08:29:56.235Z,3.58
2023-03-28T08:30:56.213Z,3.60
2023-03-28T08:31:56.193Z,3.72
2023-03-28T08:32:56.181Z,3.82
2023-03-28T08:33:56.165Z,3.85
2023-03-28T08:34:56.146Z,3.85
2023-03-28T08:35:56.180Z,3.85
2023-03-28T08:36:56.136Z,3.90
2023-03-28T08:37:56.108Z,3.88
2023-03-28T08:38:56.095Z,3.88
2023-03-28T08:39:56.080Z,3.96
2023-03-28T08:40:56.086Z,4.06
2023-03-28T08:41:56.071Z,4.15
2023-03-28T08:42:56.032Z,4.18
2023-03-28T08:43:56.025Z,4.12
2023-03-28T08:44:56.015Z,4.22
2023-03-28T08:45:56.102Z,4.28
2023-03-28T08:46:56.104Z,4.28
2023-03-28T08:47:55.986Z,4.26
2023-03-28T08:48:56.015Z,4.24
2023-03-28T08:49:55.957Z,4.19
2023-03-28T08:50:55.948Z,4.28
2023-03-28T08:51:55.929Z,4.33
2023-03-28T08:52:55.904Z,4.36
2023-03-28T08:53:55.891Z,4.40
2023-03-28T08:54:55.884Z,4.33
2023-03-28T08:55:55.861Z,4.40
2023-03-28T08:56:55.891Z,4.43
2023-03-28T08:57:55.830Z,4.33
2023-03-28T08:58:55.818Z,4.34
2023-03-28T08:59:55.834Z,4.44
2023-03-28T09:00:55.804Z,4.50
2023-03-28T09:01:55.824Z,4.54
2023-03-28T09:02:55.966Z,4.69
2023-03-28T09:03:55.924Z,4.67
2023-03-28T09:05:05.098Z,4.76
2023-03-28T09:05:56.785Z,4.75
2023-03-28T09:06:55.713Z,4.65
2023-03-28T09:07:55.728Z,4.65
2023-03-28T09:08:55.693Z,4.55
2023-03-28T09:09:55.708Z,4.44
2023-03-28T09:10:55.692Z,4.29
2023-03-28T09:11:55.686Z,4.28
2023-03-28T09:12:55.649Z,4.25
2023-03-28T09:13:55.657Z,4.10
2023-03-28T09:14:55.629Z,4.06
2023-03-28T09:15:55.643Z,4.07
2023-03-28T09:16:55.724Z,4.08
2023-03-28T09:17:55.627Z,4.14
2023-03-28T09:18:55.580Z,4.16
2023-03-28T09:19:55.548Z,4.18
2023-03-28T09:20:55.569Z,4.16
2023-03-28T09:22:04.949Z,4.10
2023-03-28T09:22:56.530Z,4.06
2023-03-28T09:23:55.496Z,4.14
2023-03-28T09:24:55.696Z,4.14
2023-03-28T09:25:55.485Z,4.08
2023-03-28T09:26:55.484Z,4.18
2023-03-28T09:27:55.486Z,4.25
2023-03-28T09:28:55.468Z,4.29
2023-03-28T09:29:55.436Z,4.34
2023-03-28T09:30:55.430Z,4.28
2023-03-28T09:31:55.463Z,4.16
2023-03-28T09:32:55.409Z,4.21
2023-03-28T09:33:55.377Z,4.29
2023-03-28T09:34:55.409Z,4.29
2023-03-28T09:35:55.386Z,4.33
2023-03-28T09:36:55.665Z,4.29
2023-03-28T09:37:55.365Z,4.32
2023-03-28T09:38:55.305Z,4.32
2023-03-28T09:39:55.330Z,4.42
2023-03-28T09:40:55.277Z,4.46
2023-03-28T09:41:55.279Z,4.44
2023-03-28T09:42:55.300Z,4.52
2023-03-28T09:43:57.306Z,4.58
2023-03-28T09:44:55.250Z,4.61
2023-03-28T09:45:55.252Z,4.57
2023-03-28T09:46:55.253Z,4.43
2023-03-28T09:47:55.316Z,4.37
2023-03-28T09:48:55.299Z,4.25
2023-03-28T09:50:02.458Z,4.15
2023-03-28T09:50:56.155Z,4.16
2023-03-28T09:51:55.135Z,4.10
2023-03-28T09:52:55.121Z,4.22
2023-03-28T09:53:55.135Z,4.42
2023-03-28T09:54:55.121Z,4.57
2023-03-28T09:56:03.858Z,4.67
2023-03-28T09:56:56.157Z,4.99
2023-03-28T09:57:55.077Z,5.31
2023-03-28T09:58:55.076Z,5.53
2023-03-28T09:59:55.058Z,5.35
2023-03-28T10:00:55.191Z,5.13
2023-03-28T10:01:55.061Z,5.05
2023-03-28T10:02:55.060Z,4.96
2023-03-28T10:03:54.991Z,4.95
2023-03-28T10:04:55.045Z,4.89
2023-03-28T10:05:54.960Z,4.96
2023-03-28T10:06:54.956Z,5.09
2023-03-28T10:07:54.951Z,5.09
2023-03-28T10:08:54.924Z,4.95
2023-03-28T10:09:54.936Z,4.96
2023-03-28T10:10:55.052Z,5.05
2023-03-28T10:11:54.945Z,5.12
2023-03-28T10:12:54.885Z,5.07
2023-03-28T10:13:54.881Z,5.09
2023-03-28T10:14:54.842Z,5.14
2023-03-28T10:15:54.891Z,4.99
2023-03-28T10:16:54.840Z,4.95
2023-03-28T10:17:54.915Z,4.95
2023-03-28T10:18:54.848Z,4.96
2023-03-28T10:19:54.780Z,4.86
2023-03-28T10:20:54.783Z,4.89
2023-03-28T10:21:54.773Z,4.84
2023-03-28T10:22:54.819Z,4.88
2023-03-28T10:23:54.720Z,4.91
2023-03-28T10:24:54.728Z,4.92
2023-03-28T10:25:54.707Z,4.95
2023-03-28T10:26:54.706Z,5.05
2023-03-28T10:27:54.700Z,5.12
2023-03-28T10:28:54.702Z,5.16
2023-03-28T10:29:54.666Z,5.13
2023-03-28T10:30:54.763Z,5.13
2023-03-28T10:31:54.635Z,5.16
2023-03-28T10:32:54.698Z,5.10
2023-03-28T10:33:54.607Z,5.07
2023-03-28T10:34:54.613Z,5.09
2023-03-28T10:35:54.629Z,5.12
2023-03-28T10:36:54.619Z,5.13
2023-03-28T10:37:54.553Z,5.13
2023-03-28T10:38:54.541Z,5.10
2023-03-28T10:39:54.529Z,5.10
2023-03-28T10:40:54.571Z,5.20
2023-03-28T10:41:54.488Z,5.19
2023-03-28T10:42:54.489Z,5.22
2023-03-28T10:43:54.463Z,5.27
2023-03-28T10:44:54.588Z,5.37
2023-03-28T10:45:54.447Z,5.27
2023-03-28T10:46:54.529Z,5.22
2023-03-28T10:47:54.468Z,5.13
2023-03-28T10:48:54.418Z,5.05
2023-03-28T10:49:54.399Z,4.95
2023-03-28T10:50:54.404Z,5.02
2023-03-28T10:51:54.375Z,5.04
2023-03-28T10:52:54.361Z,5.13
2023-03-28T10:53:54.385Z,5.14
2023-03-28T10:54:54.338Z,5.19
2023-03-28T10:55:54.326Z,5.22
2023-03-28T10:56:54.336Z,5.32
2023-03-28T10:57:54.294Z,5.43
2023-03-28T10:58:54.291Z,5.38
2023-03-28T10:59:54.274Z,5.32
2023-03-28T11:00:54.311Z,5.34
2023-03-28T11:01:54.261Z,5.32
2023-03-28T11:02:54.304Z,5.30
2023-03-28T11:03:54.396Z,5.34
2023-03-28T11:04:54.221Z,5.38
2023-03-28T11:06:08.093Z,5.40
2023-03-28T11:06:55.221Z,5.34
2023-03-28T11:07:54.195Z,5.25
2023-03-28T11:08:54.176Z,5.25
2023-03-28T11:09:54.187Z,5.27
2023-03-28T11:10:54.110Z,5.19
2023-03-28T11:11:54.118Z,5.17
2023-03-28T11:12:56.151Z,5.16
2023-03-28T11:13:54.098Z,5.17
2023-03-28T11:14:54.076Z,5.19
2023-03-28T11:15:54.094Z,5.07
2023-03-28T11:16:54.048Z,5.02
2023-03-28T11:17:54.079Z,5.02
2023-03-28T11:18:54.012Z,5.02
2023-03-28T11:19:54.025Z,5.07
2023-03-28T11:20:54.000Z,5.14
2023-03-28T11:21:53.969Z,5.37
2023-03-28T11:23:04.629Z,5.63
2023-03-28T11:23:54.976Z,5.93
2023-03-28T11:24:53.949Z,6.09
2023-03-28T11:25:53.940Z,6.18
2023-03-28T11:26:57.597Z,6.22
2023-03-28T11:27:54.921Z,6.33
2023-03-28T11:28:53.907Z,6.30
2023-03-28T11:29:53.883Z,6.48
2023-03-28T11:30:53.868Z,6.41
2023-03-28T11:31:53.977Z,6.50
2023-03-28T11:32:53.901Z,6.46
2023-03-28T11:33:53.832Z,6.35
2023-03-28T11:34:53.802Z,6.28
2023-03-28T11:35:53.798Z,6.04
2023-03-28T11:36:53.782Z,5.96
2023-03-28T11:37:53.763Z,6.09
2023-03-28T11:38:53.769Z,6.29
2023-03-28T11:39:53.776Z,6.16
2023-03-28T11:40:53.746Z,6.07
2023-03-28T11:41:53.739Z,6.11
2023-03-28T11:42:53.717Z,6.40
2023-03-28T11:43:53.692Z,6.54
2023-03-28T11:44:53.688Z,6.84
2023-03-28T11:45:53.743Z,7.12
2023-03-28T11:46:53.674Z,7.09
2023-03-28T11:47:53.739Z,6.91
2023-03-28T11:48:53.646Z,6.87
2023-03-28T11:49:53.620Z,6.83
2023-03-28T11:50:53.614Z,6.73
2023-03-28T11:51:53.632Z,6.53
2023-03-28T11:52:53.600Z,6.54
2023-03-28T11:53:53.571Z,6.30
2023-03-28T11:54:53.544Z,6.30
2023-03-28T11:55:53.527Z,6.44
2023-03-28T11:56:53.622Z,6.48
2023-03-28T11:57:53.511Z,6.66
2023-03-28T11:58:53.499Z,6.91
2023-03-28T11:59:53.487Z,6.87
2023-03-28T12:00:53.508Z,7.09
2023-03-28T12:01:53.484Z,6.97
2023-03-28T12:02:53.608Z,6.89
2023-03-28T12:03:53.503Z,6.84
2023-03-28T12:04:53.428Z,6.86
2023-03-28T12:05:57.784Z,6.98
2023-03-28T12:07:02.169Z,6.97
2023-03-28T12:07:54.379Z,7.01
2023-03-28T12:08:53.365Z,7.09
2023-03-28T12:09:53.355Z,7.09
2023-03-28T12:10:53.346Z,6.89
2023-03-28T12:11:53.325Z,6.97
2023-03-28T12:12:53.318Z,6.94
2023-03-28T12:14:05.067Z,6.84
2023-03-28T12:14:54.283Z,6.94
2023-03-28T12:15:53.296Z,7.20
2023-03-28T12:16:53.345Z,6.98
2023-03-28T12:17:53.303Z,6.83
2023-03-28T12:18:53.238Z,6.90
2023-03-28T12:19:53.212Z,7.04
2023-03-28T12:20:53.210Z,7.08
2023-03-28T12:21:53.206Z,7.17
2023-03-28T12:22:53.187Z,7.13
2023-03-28T12:23:53.157Z,7.09
2023-03-28T12:24:53.262Z,7.15
2023-03-28T12:25:53.173Z,7.13
2023-03-28T12:26:55.924Z,7.12
2023-03-28T12:27:53.118Z,7.15
2023-03-28T12:28:53.129Z,7.16
2023-03-28T12:29:53.114Z,7.23
2023-03-28T12:30:53.101Z,7.35
2023-03-28T12:31:53.114Z,7.53
2023-03-28T12:32:53.123Z,7.55
2023-03-28T12:33:53.046Z,7.71
2023-03-28T12:34:53.021Z,7.71
2023-03-28T12:35:53.043Z,7.71
2023-03-28T12:36:53.446Z,7.38
2023-03-28T12:37:53.000Z,7.34
2023-03-28T12:38:55.515Z,7.34
2023-03-28T12:39:54.844Z,7.29
2023-03-28T12:40:52.973Z,7.26
2023-03-28T12:41:52.920Z,7.23
2023-03-28T12:42:52.947Z,7.31
2023-03-28T12:43:52.958Z,7.38
2023-03-28T12:44:52.915Z,7.49
2023-03-28T12:45:52.917Z,7.56
2023-03-28T12:46:52.878Z,7.53
2023-03-28T12:47:52.898Z,7.44
2023-03-28T12:48:52.881Z,7.37
2023-03-28T12:49:52.837Z,7.40
2023-03-28T12:50:52.808Z,7.27
2023-03-28T12:51:52.793Z,7.44
2023-03-28T12:52:52.809Z,7.50
2023-03-28T12:53:52.781Z,7.56
2023-03-28T12:54:52.786Z,7.78
2023-03-28T12:55:52.774Z,7.78
2023-03-28T12:56:52.781Z,7.44
2023-03-28T12:57:52.735Z,7.44
2023-03-28T12:58:52.830Z,7.23
2023-03-28T12:59:52.720Z,7.22
2023-03-28T13:00:52.684Z,7.34
2023-03-28T13:01:52.777Z,7.35
2023-03-28T13:02:52.720Z,7.37
2023-03-28T13:03:52.691Z,7.07
2023-03-28T13:04:52.823Z,6.90
2023-03-28T13:05:52.622Z,7.02
2023-03-28T13:06:52.632Z,7.15
2023-03-28T13:07:52.591Z,7.13
2023-03-28T13:08:52.599Z,6.90
2023-03-28T13:09:52.621Z,6.80
2023-03-28T13:10:52.598Z,6.66
2023-03-28T13:11:52.596Z,6.59
2023-03-28T13:12:52.534Z,6.62
2023-03-28T13:13:52.553Z,6.62
2023-03-28T13:14:52.558Z,6.62
2023-03-28T13:15:52.545Z,6.58
2023-03-28T13:16:52.513Z,6.54
2023-03-28T13:17:52.503Z,6.62
2023-03-28T13:18:52.470Z,6.80